createdAt,value
2019-03-11T00:00:26.602Z,0.00
2019-03-11T00:01:26.583Z,0.00
2019-03-11T00:02:26.551Z,0.00
2019-03-11T00:03:26.535Z,0.00
2019-03-11T00:04:27.374Z,0.00
2019-03-11T00:05:26.480Z,0.00
2019-03-11T00:06:26.487Z,0.00
2019-03-11T00:07:26.432Z,0.00
2019-03-11T00:08:26.407Z,0.00
2019-03-11T00:09:26.391Z,0.00
2019-03-11T00:10:26.362Z,0.00
2019-03-11T00:11:26.339Z,0.00
2019-03-11T00:12:26.327Z,0.00
2019-03-11T00:13:26.315Z,0.00
2019-03-11T00:14:26.272Z,0.00
2019-03-11T00:15:26.240Z,0.00
2019-03-11T00:16:26.222Z,0.00
2019-03-11T00:17:26.191Z,0.00
2019-03-11T00:18:26.169Z,0.00
2019-03-11T00:19:26.144Z,0.00
2019-03-11T00:20:26.127Z,0.00
2019-03-11T00:21:26.099Z,0.00
2019-03-11T00:22:26.075Z,0.00
2019-03-11T00:23:26.049Z,0.00
2019-03-11T00:24:26.024Z,0.00
2019-03-11T00:25:26.007Z,0.00
2019-03-11T00:26:25.985Z,0.00
2019-03-11T00:27:25.959Z,0.00
2019-03-11T00:28:25.931Z,0.00
2019-03-11T00:29:25.912Z,0.00
2019-03-11T00:30:25.883Z,0.00
2019-03-11T00:31:25.858Z,0.00
2019-03-11T00:32:25.847Z,0.00
2019-03-11T00:33:25.810Z,0.00
2019-03-11T00:34:25.790Z,0.00
2019-03-11T00:35:25.762Z,0.00
2019-03-11T00:36:25.746Z,0.00
2019-03-11T00:37:25.720Z,0.00
2019-03-11T00:38:25.691Z,0.00
2019-03-11T00:39:25.666Z,0.00
2019-03-11T00:40:25.648Z,0.00
2019-03-11T00:41:25.624Z,0.00
2019-03-11T00:42:25.595Z,0.00
2019-03-11T00:43:25.570Z,0.00
2019-03-11T00:44:25.554Z,0.00
2019-03-11T00:45:25.522Z,0.00
2019-03-11T00:46:25.506Z,0.00
2019-03-11T00:47:25.474Z,0.00
2019-03-11T00:48:25.455Z,0.00
2019-03-11T00:49:25.433Z,0.00
2019-03-11T00:50:25.452Z,0.00
2019-03-11T00:51:25.440Z,0.00
2019-03-11T00:52:25.376Z,0.00
2019-03-11T00:53:25.340Z,0.00
2019-03-11T00:54:25.330Z,0.00
2019-03-11T00:55:25.300Z,0.00
2019-03-11T00:56:25.264Z,0.00
2019-03-11T00:57:25.258Z,0.00
2019-03-11T00:58:25.210Z,0.00
2019-03-11T00:59:25.192Z,0.00
2019-03-11T01:00:25.198Z,0.00
2019-03-11T01:01:25.139Z,0.00
2019-03-11T01:02:25.170Z,0.00
2019-03-11T01:03:25.095Z,0.00
2019-03-11T01:04:25.076Z,0.00
2019-03-11T01:05:25.042Z,0.00
2019-03-11T01:06:25.023Z,0.00
2019-03-11T01:07:24.996Z,0.00
2019-03-11T01:08:24.972Z,0.00
2019-03-11T01:09:24.957Z,0.00
2019-03-11T01:10:24.953Z,0.00
2019-03-11T01:11:24.906Z,0.00
2019-03-11T01:12:24.876Z,0.00
2019-03-11T01:13:24.858Z,0.00
2019-03-11T01:14:24.836Z,0.00
2019-03-11T01:15:24.814Z,0.00
2019-03-11T01:16:24.785Z,0.00
2019-03-11T01:17:24.756Z,0.00
2019-03-11T01:18:24.741Z,0.00
2019-03-11T01:19:24.708Z,0.00
2019-03-11T01:20:24.688Z,0.00
2019-03-11T01:21:24.669Z,0.00
2019-03-11T01:22:24.644Z,0.00
2019-03-11T01:23:24.611Z,0.00
2019-03-11T01:24:24.603Z,0.00
2019-03-11T01:25:24.572Z,0.00
2019-03-11T01:26:24.540Z,0.00
2019-03-11T01:27:24.518Z,0.00
2019-03-11T01:28:24.499Z,0.00
2019-03-11T01:29:24.470Z,0.00
2019-03-11T01:30:24.489Z,0.00
2019-03-11T01:31:24.422Z,0.00
2019-03-11T01:32:24.398Z,0.00
2019-03-11T01:33:24.379Z,0.00
2019-03-11T01:34:24.414Z,0.00
2019-03-11T01:35:24.325Z,0.00
2019-03-11T01:36:24.309Z,0.00
2019-03-11T01:37:24.286Z,0.00
2019-03-11T01:38:24.257Z,0.00
2019-03-11T01:39:24.232Z,0.00
2019-03-11T01:40:24.220Z,0.00
2019-03-11T01:41:24.184Z,0.00
2019-03-11T01:42:24.161Z,0.00
2019-03-11T01:43:24.136Z,0.00
2019-03-11T01:44:24.113Z,0.00
2019-03-11T01:45:24.094Z,0.00
2019-03-11T01:46:24.066Z,0.00
2019-03-11T01:47:24.046Z,0.00
2019-03-11T01:48:24.023Z,0.00
2019-03-11T01:49:24.184Z,0.00
2019-03-11T01:50:24.024Z,0.00
2019-03-11T01:51:23.953Z,0.00
2019-03-11T01:52:23.921Z,0.00
2019-03-11T01:53:23.899Z,0.00
2019-03-11T01:54:23.882Z,0.00
2019-03-11T01:55:23.857Z,0.00
2019-03-11T01:56:23.828Z,0.00
2019-03-11T01:57:23.812Z,0.00
2019-03-11T01:58:23.779Z,0.00
2019-03-11T01:59:23.756Z,0.00
2019-03-11T02:00:23.738Z,0.00
2019-03-11T02:01:23.709Z,0.00
2019-03-11T02:02:23.700Z,0.00
2019-03-11T02:03:23.665Z,0.00
2019-03-11T02:04:23.637Z,0.00
2019-03-11T02:05:23.614Z,0.00
2019-03-11T02:06:23.594Z,0.00
2019-03-11T02:07:23.571Z,0.00
2019-03-11T02:08:23.541Z,0.00
2019-03-11T02:09:23.527Z,0.00
2019-03-11T02:10:23.503Z,0.00
2019-03-11T02:11:23.477Z,0.00
2019-03-11T02:12:23.456Z,0.00
2019-03-11T02:13:23.434Z,0.00
2019-03-11T02:14:23.403Z,0.00
2019-03-11T02:15:23.402Z,0.00
2019-03-11T02:16:23.357Z,0.00
2019-03-11T02:17:23.345Z,0.00
2019-03-11T02:18:23.306Z,0.00
2019-03-11T02:19:23.283Z,0.00
2019-03-11T02:20:23.263Z,0.00
2019-03-11T02:21:23.235Z,0.00
2019-03-11T02:22:23.212Z,0.00
2019-03-11T02:23:23.188Z,0.00
2019-03-11T02:24:23.172Z,0.00
2019-03-11T02:25:23.142Z,0.00
2019-03-11T02:26:23.116Z,0.00
2019-03-11T02:27:23.094Z,0.00
2019-03-11T02:28:23.068Z,0.00
2019-03-11T02:29:23.047Z,0.00
2019-03-11T02:30:23.027Z,0.00
2019-03-11T02:31:22.999Z,0.00
2019-03-11T02:32:22.975Z,0.00
2019-03-11T02:33:22.976Z,0.00
2019-03-11T02:34:22.945Z,0.00
2019-03-11T02:35:22.905Z,0.00
2019-03-11T02:36:22.881Z,0.00
2019-03-11T02:37:22.867Z,0.00
2019-03-11T02:38:22.848Z,0.00
2019-03-11T02:39:22.808Z,0.00
2019-03-11T02:40:22.786Z,0.00
2019-03-11T02:41:22.769Z,0.00
2019-03-11T02:42:22.738Z,0.00
2019-03-11T02:43:22.715Z,0.00
2019-03-11T02:44:22.696Z,0.00
2019-03-11T02:45:22.674Z,0.00
2019-03-11T02:46:22.654Z,0.00
2019-03-11T02:47:22.621Z,0.00
2019-03-11T02:48:22.606Z,0.00
2019-03-11T02:49:22.579Z,0.00
2019-03-11T02:50:22.558Z,0.00
2019-03-11T02:51:22.529Z,0.00
2019-03-11T02:52:22.510Z,0.00
2019-03-11T02:53:22.484Z,0.00
2019-03-11T02:54:22.456Z,0.00
2019-03-11T02:55:22.433Z,0.00
2019-03-11T02:56:22.415Z,0.00
2019-03-11T02:57:22.386Z,0.00
2019-03-11T02:58:22.369Z,0.00
2019-03-11T02:59:22.362Z,0.00
2019-03-11T03:00:22.316Z,0.00
2019-03-11T03:01:22.322Z,0.00
2019-03-11T03:02:22.280Z,0.00
2019-03-11T03:03:22.273Z,0.00
2019-03-11T03:04:22.232Z,0.00
2019-03-11T03:05:22.202Z,0.00
2019-03-11T03:06:22.180Z,0.00
2019-03-11T03:07:22.148Z,0.00
2019-03-11T03:08:22.126Z,0.00
2019-03-11T03:09:22.105Z,0.00
2019-03-11T03:10:22.078Z,0.00
2019-03-11T03:11:22.066Z,0.00
2019-03-11T03:12:22.101Z,0.00
2019-03-11T03:13:22.015Z,0.00
2019-03-11T03:14:21.989Z,0.00
2019-03-11T03:15:21.962Z,0.00
2019-03-11T03:16:21.943Z,0.00
2019-03-11T03:17:24.466Z,0.00
2019-03-11T03:18:21.894Z,0.00
2019-03-11T03:19:21.878Z,0.00
2019-03-11T03:20:21.870Z,0.00
2019-03-11T03:21:21.851Z,0.00
2019-03-11T03:22:21.798Z,0.00
2019-03-11T03:23:21.775Z,0.00
2019-03-11T03:24:21.764Z,0.00
2019-03-11T03:25:32.850Z,0.00
2019-03-11T03:26:21.702Z,0.00
2019-03-11T03:27:21.680Z,0.00
2019-03-11T03:28:21.672Z,0.00
2019-03-11T03:29:21.642Z,0.00
2019-03-11T03:30:21.615Z,0.00
2019-03-11T03:31:21.580Z,0.00
2019-03-11T03:32:21.568Z,0.00
2019-03-11T03:33:21.721Z,0.00
2019-03-11T03:34:21.520Z,0.00
2019-03-11T03:35:21.514Z,0.00
2019-03-11T03:36:21.464Z,0.00
2019-03-11T03:37:21.448Z,0.00
2019-03-11T03:38:30.280Z,0.00
2019-03-11T03:39:21.400Z,0.00
2019-03-11T03:40:21.370Z,0.00
2019-03-11T03:41:21.352Z,0.00
2019-03-11T03:42:21.327Z,0.00
2019-03-11T03:43:21.301Z,0.00
2019-03-11T03:44:21.287Z,0.00
2019-03-11T03:45:21.302Z,0.00
2019-03-11T03:46:21.225Z,0.00
2019-03-11T03:47:21.228Z,0.00
2019-03-11T03:48:21.245Z,0.00
2019-03-11T03:49:21.161Z,0.00
2019-03-11T03:50:21.132Z,0.00
2019-03-11T03:51:21.114Z,0.00
2019-03-11T03:52:21.092Z,0.00
2019-03-11T03:53:21.063Z,0.00
2019-03-11T03:54:21.038Z,0.00
2019-03-11T03:55:21.020Z,0.00
2019-03-11T03:56:20.989Z,0.00
2019-03-11T03:57:20.976Z,0.00
2019-03-11T03:58:20.971Z,0.00
2019-03-11T03:59:20.919Z,0.00
2019-03-11T04:00:20.917Z,0.00
2019-03-11T04:01:20.875Z,0.00
2019-03-11T04:02:20.846Z,0.00
2019-03-11T04:03:20.829Z,0.00
2019-03-11T04:04:20.807Z,0.00
2019-03-11T04:05:20.775Z,0.00
2019-03-11T04:06:20.752Z,0.00
2019-03-11T04:07:20.733Z,0.00
2019-03-11T04:08:20.714Z,0.00
2019-03-11T04:09:20.682Z,0.00
2019-03-11T04:10:20.657Z,0.00
2019-03-11T04:11:20.639Z,0.00
2019-03-11T04:12:20.609Z,0.00
2019-03-11T04:13:20.587Z,0.00
2019-03-11T04:14:20.565Z,0.00
2019-03-11T04:15:20.539Z,0.00
2019-03-11T04:16:20.516Z,0.00
2019-03-11T04:17:20.494Z,0.00
2019-03-11T04:18:20.485Z,0.00
2019-03-11T04:19:20.441Z,0.00
2019-03-11T04:20:20.420Z,0.00
2019-03-11T04:21:20.418Z,0.00
2019-03-11T04:22:20.383Z,0.00
2019-03-11T04:23:20.347Z,0.00
2019-03-11T04:24:20.322Z,0.00
2019-03-11T04:25:20.303Z,0.00
2019-03-11T04:26:20.281Z,0.00
2019-03-11T04:27:20.256Z,0.00
2019-03-11T04:28:20.229Z,0.00
2019-03-11T04:29:20.205Z,0.00
2019-03-11T04:30:20.182Z,0.00
2019-03-11T04:31:20.163Z,0.00
2019-03-11T04:32:20.144Z,0.00
2019-03-11T04:33:20.139Z,0.00
2019-03-11T04:34:20.084Z,0.00
2019-03-11T04:35:20.063Z,0.00
2019-03-11T04:36:20.038Z,0.00
2019-03-11T04:37:20.014Z,0.00
2019-03-11T04:38:19.998Z,0.00
2019-03-11T04:39:19.970Z,0.00
2019-03-11T04:40:19.955Z,0.00
2019-03-11T04:41:19.924Z,0.00
2019-03-11T04:42:19.899Z,0.00
2019-03-11T04:43:19.874Z,0.00
2019-03-11T04:44:19.847Z,0.00
2019-03-11T04:45:19.829Z,0.00
2019-03-11T04:46:19.805Z,0.00
2019-03-11T04:47:19.783Z,0.00
2019-03-11T04:48:19.762Z,0.00
2019-03-11T04:49:19.745Z,0.00
2019-03-11T04:50:19.706Z,0.00
2019-03-11T04:51:19.687Z,0.00
2019-03-11T04:52:19.673Z,0.00
2019-03-11T04:53:19.635Z,0.00
2019-03-11T04:54:19.612Z,0.00
2019-03-11T04:55:19.596Z,0.00
2019-03-11T04:56:19.564Z,0.00
2019-03-11T04:57:19.545Z,0.00
2019-03-11T04:58:19.517Z,0.00
2019-03-11T04:59:19.535Z,0.00
2019-03-11T05:00:19.471Z,0.00
2019-03-11T05:01:19.445Z,0.00
2019-03-11T05:02:19.420Z,0.00
2019-03-11T05:03:19.398Z,0.00
2019-03-11T05:04:19.374Z,0.00
2019-03-11T05:05:19.350Z,0.00
2019-03-11T05:06:19.324Z,0.00
2019-03-11T05:07:19.301Z,0.00
2019-03-11T05:08:19.276Z,0.00
2019-03-11T05:09:19.254Z,0.00
2019-03-11T05:10:19.237Z,0.00
2019-03-11T05:11:19.207Z,0.00
2019-03-11T05:12:19.180Z,0.00
2019-03-11T05:13:19.160Z,0.00
2019-03-11T05:14:19.138Z,0.00
2019-03-11T05:15:19.120Z,0.00
2019-03-11T05:16:19.130Z,0.00
2019-03-11T05:17:19.068Z,0.00
2019-03-11T05:18:19.041Z,0.00
2019-03-11T05:19:19.016Z,4.00
2019-03-11T05:20:18.987Z,0.00
2019-03-11T05:21:18.965Z,4.00
2019-03-11T05:22:18.937Z,4.00
2019-03-11T05:23:18.930Z,4.00
2019-03-11T05:24:18.885Z,8.00
2019-03-11T05:25:18.869Z,4.00
2019-03-11T05:26:18.848Z,8.00
2019-03-11T05:27:18.817Z,8.00
2019-03-11T05:28:18.793Z,4.00
2019-03-11T05:29:18.766Z,8.00
2019-03-11T05:30:18.739Z,8.00
2019-03-11T05:31:18.720Z,8.00
2019-03-11T05:32:18.697Z,16.00
2019-03-11T05:33:18.665Z,12.00
2019-03-11T05:34:18.729Z,8.00
2019-03-11T05:35:18.624Z,12.00
2019-03-11T05:36:18.592Z,20.00
2019-03-11T05:37:18.571Z,32.00
2019-03-11T05:38:18.551Z,44.00
2019-03-11T05:39:18.531Z,52.00
2019-03-11T05:40:18.497Z,76.00
2019-03-11T05:41:18.471Z,88.00
2019-03-11T05:42:18.446Z,96.00
2019-03-11T05:43:18.420Z,92.00
2019-03-11T05:44:18.395Z,100.00
2019-03-11T05:45:18.382Z,104.00
2019-03-11T05:46:18.353Z,124.00
2019-03-11T05:47:18.353Z,148.00
2019-03-11T05:48:18.303Z,168.00
2019-03-11T05:49:18.276Z,188.00
2019-03-11T05:50:18.257Z,196.00
2019-03-11T05:51:18.226Z,224.00
2019-03-11T05:52:18.206Z,236.00
2019-03-11T05:53:18.186Z,260.00
2019-03-11T05:54:18.151Z,260.00
2019-03-11T05:55:18.129Z,268.00
2019-03-11T05:56:18.107Z,284.00
2019-03-11T05:57:18.085Z,308.00
2019-03-11T05:58:18.060Z,328.00
2019-03-11T05:59:18.029Z,364.00
2019-03-11T06:00:18.013Z,380.00
2019-03-11T06:01:17.980Z,416.00
2019-03-11T06:02:17.961Z,452.00
2019-03-11T06:03:17.939Z,528.00
2019-03-11T06:04:17.903Z,612.00
2019-03-11T06:05:17.892Z,704.00
2019-03-11T06:06:17.857Z,760.00
2019-03-11T06:07:17.841Z,824.00
2019-03-11T06:08:17.831Z,936.00
2019-03-11T06:09:17.790Z,1008.00
2019-03-11T06:10:17.768Z,1020.00
2019-03-11T06:11:17.739Z,1012.00
2019-03-11T06:12:17.717Z,996.00
2019-03-11T06:13:17.691Z,1044.00
2019-03-11T06:14:17.668Z,1104.00
2019-03-11T06:15:17.637Z,1040.00
2019-03-11T06:16:17.635Z,1048.00
2019-03-11T06:17:17.596Z,1128.00
2019-03-11T06:18:17.567Z,1136.00
2019-03-11T06:19:17.545Z,1156.00
2019-03-11T06:20:17.527Z,1176.00
2019-03-11T06:21:17.494Z,1256.00
2019-03-11T06:22:17.471Z,1296.00
2019-03-11T06:23:17.451Z,1300.00
2019-03-11T06:24:17.432Z,1292.00
2019-03-11T06:25:17.421Z,1340.00
2019-03-11T06:26:17.371Z,1384.00
2019-03-11T06:27:17.352Z,1424.00
2019-03-11T06:28:17.326Z,1468.00
2019-03-11T06:29:17.305Z,1496.00
2019-03-11T06:30:17.285Z,1500.00
2019-03-11T06:31:17.249Z,1460.00
2019-03-11T06:32:17.227Z,1380.00
2019-03-11T06:33:17.213Z,1340.00
2019-03-11T06:34:17.184Z,1336.00
2019-03-11T06:35:17.152Z,1308.00
2019-03-11T06:36:17.133Z,1340.00
2019-03-11T06:37:17.102Z,1304.00
2019-03-11T06:38:17.094Z,1244.00
2019-03-11T06:39:17.059Z,1200.00
2019-03-11T06:40:17.033Z,1156.00
2019-03-11T06:41:17.012Z,1200.00
2019-03-11T06:42:16.980Z,1232.00
2019-03-11T06:43:16.962Z,1180.00
2019-03-11T06:44:16.932Z,1136.00
2019-03-11T06:45:16.908Z,1120.00
2019-03-11T06:46:16.886Z,1044.00
2019-03-11T06:47:16.864Z,1028.00
2019-03-11T06:48:16.831Z,1008.00
2019-03-11T06:49:16.809Z,940.00
2019-03-11T06:50:16.791Z,836.00
2019-03-11T06:51:16.819Z,760.00
2019-03-11T06:52:16.735Z,840.00
2019-03-11T06:53:16.713Z,964.00
2019-03-11T06:54:16.707Z,1000.00
2019-03-11T06:55:16.666Z,896.00
2019-03-11T06:56:16.642Z,944.00
2019-03-11T06:57:16.620Z,1076.00
2019-03-11T06:58:16.594Z,1304.00
2019-03-11T06:59:16.566Z,1696.00
2019-03-11T07:00:16.554Z,2304.00
2019-03-11T07:01:16.518Z,2224.00
2019-03-11T07:02:16.495Z,2060.00
2019-03-11T07:03:16.473Z,2312.00
2019-03-11T07:04:16.448Z,3108.00
2019-03-11T07:05:20.374Z,4012.00
2019-03-11T07:06:16.401Z,4552.00
2019-03-11T07:07:16.372Z,3468.00
2019-03-11T07:08:16.346Z,2956.00
2019-03-11T07:09:16.458Z,2880.00
2019-03-11T07:10:16.302Z,3132.00
2019-03-11T07:11:16.279Z,3000.00
2019-03-11T07:12:16.257Z,2964.00
2019-03-11T07:13:16.232Z,3276.00
2019-03-11T07:14:16.206Z,3892.00
2019-03-11T07:15:16.186Z,4712.00
2019-03-11T07:16:16.158Z,4828.00
2019-03-11T07:17:16.135Z,4360.00
2019-03-11T07:18:16.103Z,3024.00
2019-03-11T07:19:16.088Z,3248.00
2019-03-11T07:20:16.057Z,3292.00
2019-03-11T07:21:16.056Z,3164.00
2019-03-11T07:22:16.014Z,3448.00
2019-03-11T07:23:15.982Z,3768.00
2019-03-11T07:24:15.960Z,4024.00
2019-03-11T07:25:15.937Z,2764.00
2019-03-11T07:26:15.918Z,2136.00
2019-03-11T07:27:15.890Z,2648.00
2019-03-11T07:28:15.870Z,3048.00
2019-03-11T07:29:15.839Z,3696.00
2019-03-11T07:30:15.817Z,4792.00
2019-03-11T07:31:15.798Z,6136.00
2019-03-11T07:32:15.768Z,7068.00
2019-03-11T07:33:15.744Z,8512.00
2019-03-11T07:34:15.727Z,5016.00
2019-03-11T07:35:15.704Z,4944.00
2019-03-11T07:36:15.670Z,6288.00
2019-03-11T07:37:15.755Z,5116.00
2019-03-11T07:38:15.629Z,4908.00
2019-03-11T07:39:15.603Z,4696.00
2019-03-11T07:40:15.583Z,6228.00
2019-03-11T07:41:15.553Z,6984.00
2019-03-11T07:42:15.529Z,6568.00
2019-03-11T07:43:15.503Z,5568.00
2019-03-11T07:44:15.486Z,5996.00
2019-03-11T07:45:15.470Z,5088.00
2019-03-11T07:46:15.438Z,4660.00
2019-03-11T07:47:15.410Z,4696.00
2019-03-11T07:48:15.392Z,4128.00
2019-03-11T07:49:15.362Z,5260.00
2019-03-11T07:50:15.339Z,5480.00
2019-03-11T07:51:15.320Z,6328.00
2019-03-11T07:52:15.300Z,6992.00
2019-03-11T07:53:15.272Z,6256.00
2019-03-11T07:54:15.244Z,5336.00
2019-03-11T07:55:15.224Z,5780.00
2019-03-11T07:56:15.203Z,6752.00
2019-03-11T07:57:15.181Z,5556.00
2019-03-11T07:58:15.155Z,5368.00
2019-03-11T07:59:15.129Z,5104.00
2019-03-11T08:00:15.125Z,5480.00
2019-03-11T08:01:15.084Z,6380.00
2019-03-11T08:02:15.068Z,9200.00
2019-03-11T08:03:15.036Z,11120.00
2019-03-11T08:04:15.020Z,10692.00
2019-03-11T08:05:14.997Z,9784.00
2019-03-11T08:06:18.899Z,9128.00
2019-03-11T08:07:14.952Z,8304.00
2019-03-11T08:08:14.977Z,8592.00
2019-03-11T08:09:14.902Z,9104.00
2019-03-11T08:10:14.884Z,11388.00
2019-03-11T08:11:14.860Z,11268.00
2019-03-11T08:12:14.832Z,10720.00
2019-03-11T08:13:14.810Z,11140.00
2019-03-11T08:14:14.794Z,10488.00
2019-03-11T08:15:14.766Z,9276.00
2019-03-11T08:16:14.749Z,9664.00
2019-03-11T08:17:14.724Z,9088.00
2019-03-11T08:18:14.699Z,9236.00
2019-03-11T08:19:14.698Z,9496.00
2019-03-11T08:20:14.654Z,6448.00
2019-03-11T08:21:14.633Z,7720.00
2019-03-11T08:22:14.615Z,8600.00
2019-03-11T08:23:14.586Z,9976.00
2019-03-11T08:24:16.549Z,10520.00
2019-03-11T08:25:14.545Z,8916.00
2019-03-11T08:26:14.522Z,9156.00
2019-03-11T08:27:14.506Z,9280.00
2019-03-11T08:28:14.484Z,12688.00
2019-03-11T08:29:14.455Z,13576.00
2019-03-11T08:30:14.435Z,12668.00
2019-03-11T08:31:14.410Z,13884.00
2019-03-11T08:32:14.393Z,16492.00
2019-03-11T08:33:14.368Z,16168.00
2019-03-11T08:34:14.343Z,20672.00
2019-03-11T08:35:14.323Z,18144.00
2019-03-11T08:36:14.301Z,13432.00
2019-03-11T08:37:14.275Z,14488.00
2019-03-11T08:38:14.267Z,9144.00
2019-03-11T08:39:14.237Z,9176.00
2019-03-11T08:40:14.217Z,12152.00
2019-03-11T08:41:14.199Z,10964.00
2019-03-11T08:42:14.169Z,12384.00
2019-03-11T08:43:14.147Z,11212.00
2019-03-11T08:44:14.128Z,11768.00
2019-03-11T08:45:14.109Z,10492.00
2019-03-11T08:46:14.083Z,19296.00
2019-03-11T08:47:14.065Z,18528.00
2019-03-11T08:48:14.039Z,12312.00
2019-03-11T08:49:14.019Z,13440.00
2019-03-11T08:50:13.995Z,14108.00
2019-03-11T08:51:13.979Z,12308.00
2019-03-11T08:52:13.953Z,13828.00
2019-03-11T08:53:13.931Z,14112.00
2019-03-11T08:54:13.925Z,13244.00
2019-03-11T08:55:13.889Z,10928.00
2019-03-11T08:56:13.889Z,9832.00
2019-03-11T08:57:13.842Z,13492.00
2019-03-11T08:58:13.821Z,17952.00
2019-03-11T08:59:13.797Z,12492.00
2019-03-11T09:00:13.784Z,10092.00
2019-03-11T09:01:13.755Z,9448.00
2019-03-11T09:02:13.736Z,26112.00
2019-03-11T09:03:13.709Z,35680.00
2019-03-11T09:04:13.685Z,12452.00
2019-03-11T09:05:13.666Z,12884.00
2019-03-11T09:06:13.655Z,12308.00
2019-03-11T09:07:13.618Z,15556.00
2019-03-11T09:08:13.602Z,16932.00
2019-03-11T09:09:13.583Z,17236.00
2019-03-11T09:10:13.555Z,16708.00
2019-03-11T09:11:13.540Z,20672.00
2019-03-11T09:12:13.509Z,72448.00
2019-03-11T09:13:13.490Z,49280.00
2019-03-11T09:14:13.471Z,56640.00
2019-03-11T09:15:13.453Z,13568.00
2019-03-11T09:16:13.424Z,12252.00
2019-03-11T09:17:13.407Z,10232.00
2019-03-11T09:18:13.379Z,9744.00
2019-03-11T09:19:13.356Z,11908.00
2019-03-11T09:20:13.341Z,15824.00
2019-03-11T09:21:13.321Z,14028.00
2019-03-11T09:22:13.298Z,12836.00
2019-03-11T09:23:13.276Z,11492.00
2019-03-11T09:24:19.050Z,13408.00
2019-03-11T09:25:13.236Z,12828.00
2019-03-11T09:26:13.210Z,12124.00
2019-03-11T09:27:13.184Z,11760.00
2019-03-11T09:28:13.174Z,10392.00
2019-03-11T09:29:13.143Z,9000.00
2019-03-11T09:30:13.134Z,10196.00
2019-03-11T09:31:13.103Z,10240.00
2019-03-11T09:32:13.082Z,8696.00
2019-03-11T09:33:13.055Z,7356.00
2019-03-11T09:34:13.038Z,6408.00
2019-03-11T09:35:13.014Z,7144.00
2019-03-11T09:36:12.991Z,7988.00
2019-03-11T09:37:12.976Z,8828.00
2019-03-11T09:38:12.946Z,10080.00
2019-03-11T09:39:12.927Z,10796.00
2019-03-11T09:40:12.908Z,11948.00
2019-03-11T09:41:12.887Z,14388.00
2019-03-11T09:42:12.865Z,14908.00
2019-03-11T09:43:12.842Z,13564.00
2019-03-11T09:44:12.823Z,12484.00
2019-03-11T09:45:12.798Z,12124.00
2019-03-11T09:46:12.772Z,12816.00
2019-03-11T09:47:12.752Z,13896.00
2019-03-11T09:48:12.733Z,12224.00
2019-03-11T09:49:12.704Z,11192.00
2019-03-11T09:50:12.684Z,13520.00
2019-03-11T09:51:12.669Z,14108.00
2019-03-11T09:52:12.636Z,16356.00
2019-03-11T09:53:12.621Z,17632.00
2019-03-11T09:54:12.607Z,13984.00
2019-03-11T09:55:12.569Z,14764.00
2019-03-11T09:56:12.547Z,13520.00
2019-03-11T09:57:12.534Z,10476.00
2019-03-11T09:58:12.505Z,8088.00
2019-03-11T09:59:12.480Z,5820.00
2019-03-11T10:00:12.461Z,5116.00
2019-03-11T10:01:12.443Z,5456.00
2019-03-11T10:02:12.594Z,5828.00
2019-03-11T10:03:12.398Z,5624.00
2019-03-11T10:04:12.373Z,8536.00
2019-03-11T10:05:12.351Z,12752.00
2019-03-11T10:06:12.332Z,12768.00
2019-03-11T10:07:12.305Z,11764.00
2019-03-11T10:08:12.283Z,9288.00
2019-03-11T10:09:12.262Z,8804.00
2019-03-11T10:10:12.238Z,9272.00
2019-03-11T10:11:12.216Z,9560.00
2019-03-11T10:12:12.200Z,9140.00
2019-03-11T10:13:12.204Z,8820.00
2019-03-11T10:14:12.150Z,7716.00
2019-03-11T10:15:12.129Z,8664.00
2019-03-11T10:16:12.100Z,15112.00
2019-03-11T10:17:12.080Z,16608.00
2019-03-11T10:18:12.063Z,15784.00
2019-03-11T10:19:12.041Z,14076.00
2019-03-11T10:20:12.011Z,16640.00
2019-03-11T10:21:11.991Z,12112.00
2019-03-11T10:22:11.972Z,13988.00
2019-03-11T10:23:11.943Z,20384.00
2019-03-11T10:24:11.923Z,21568.00
2019-03-11T10:25:11.905Z,20864.00
2019-03-11T10:26:11.877Z,26144.00
2019-03-11T10:27:11.905Z,34976.00
2019-03-11T10:28:11.835Z,21664.00
2019-03-11T10:29:11.814Z,18976.00
2019-03-11T10:30:11.786Z,17952.00
2019-03-11T10:31:11.770Z,16860.00
2019-03-11T10:32:11.750Z,16284.00
2019-03-11T10:33:11.719Z,18656.00
2019-03-11T10:34:11.703Z,17112.00
2019-03-11T10:35:30.090Z,15876.00
2019-03-11T10:36:11.662Z,14320.00
2019-03-11T10:37:11.640Z,12224.00
2019-03-11T10:38:11.621Z,15012.00
2019-03-11T10:39:11.592Z,19744.00
2019-03-11T10:40:11.576Z,15380.00
2019-03-11T10:41:11.548Z,16160.00
2019-03-11T10:42:11.538Z,13256.00
2019-03-11T10:43:11.516Z,13164.00
2019-03-11T10:44:11.484Z,14004.00
2019-03-11T10:45:11.462Z,14420.00
2019-03-11T10:46:11.449Z,17664.00
2019-03-11T10:47:11.420Z,15584.00
2019-03-11T10:48:11.407Z,16712.00
2019-03-11T10:49:11.378Z,20544.00
2019-03-11T10:50:11.359Z,22304.00
2019-03-11T10:51:11.344Z,27872.00
2019-03-11T10:52:11.330Z,13324.00
2019-03-11T10:53:11.301Z,11356.00
2019-03-11T10:54:11.279Z,12740.00
2019-03-11T10:55:11.260Z,13580.00
2019-03-11T10:56:11.235Z,15640.00
2019-03-11T10:57:11.220Z,16568.00
2019-03-11T10:58:11.190Z,12804.00
2019-03-11T10:59:11.169Z,11668.00
2019-03-11T11:00:11.152Z,11684.00
2019-03-11T11:01:11.128Z,12204.00
2019-03-11T11:02:11.103Z,55136.00
2019-03-11T11:03:11.084Z,34464.00
2019-03-11T11:04:11.073Z,24768.00
2019-03-11T11:05:11.041Z,18752.00
2019-03-11T11:06:11.021Z,18048.00
2019-03-11T11:07:11.005Z,17068.00
2019-03-11T11:08:10.993Z,16304.00
2019-03-11T11:09:10.957Z,15192.00
2019-03-11T11:10:10.963Z,11440.00
2019-03-11T11:11:10.930Z,9184.00
2019-03-11T11:12:10.894Z,8652.00
2019-03-11T11:13:10.880Z,7044.00
2019-03-11T11:14:10.856Z,5080.00
2019-03-11T11:15:10.839Z,4276.00
2019-03-11T11:16:10.811Z,4228.00
2019-03-11T11:17:10.798Z,5128.00
2019-03-11T11:18:10.772Z,6536.00
2019-03-11T11:19:10.755Z,8636.00
2019-03-11T11:20:10.728Z,7524.00
2019-03-11T11:21:10.705Z,7136.00
2019-03-11T11:22:10.689Z,10436.00
2019-03-11T11:23:10.665Z,18368.00
2019-03-11T11:24:10.648Z,34784.00
2019-03-11T11:25:10.617Z,22304.00
2019-03-11T11:26:10.602Z,22496.00
2019-03-11T11:27:10.579Z,36544.00
2019-03-11T11:28:10.554Z,30560.00
2019-03-11T11:29:10.545Z,28608.00
2019-03-11T11:30:10.515Z,32256.00
2019-03-11T11:31:10.489Z,31744.00
2019-03-11T11:32:10.470Z,19136.00
2019-03-11T11:33:10.449Z,14376.00
2019-03-11T11:34:10.432Z,12388.00
2019-03-11T11:35:10.417Z,11488.00
2019-03-11T11:36:10.395Z,11496.00
2019-03-11T11:37:10.379Z,12424.00
2019-03-11T11:38:10.349Z,14776.00
2019-03-11T11:39:10.330Z,18496.00
2019-03-11T11:40:10.314Z,14452.00
2019-03-11T11:41:10.295Z,10332.00
2019-03-11T11:42:10.276Z,9784.00
2019-03-11T11:43:10.250Z,9336.00
2019-03-11T11:44:10.230Z,7916.00
2019-03-11T11:45:10.222Z,6444.00
2019-03-11T11:46:10.196Z,5948.00
2019-03-11T11:47:10.170Z,6412.00
2019-03-11T11:48:10.154Z,6368.00
2019-03-11T11:49:10.134Z,6460.00
2019-03-11T11:50:10.112Z,5648.00
2019-03-11T11:51:10.089Z,4764.00
2019-03-11T11:52:10.070Z,4624.00
2019-03-11T11:53:10.052Z,5668.00
2019-03-11T11:54:10.021Z,6420.00
2019-03-11T11:55:09.998Z,6352.00
2019-03-11T11:56:09.998Z,7244.00
2019-03-11T11:57:09.964Z,10336.00
2019-03-11T11:58:09.937Z,15076.00
2019-03-11T11:59:09.919Z,18976.00
2019-03-11T12:00:09.890Z,20256.00
2019-03-11T12:01:09.867Z,22144.00
2019-03-11T12:02:09.845Z,29632.00
2019-03-11T12:03:09.823Z,25728.00
2019-03-11T12:04:09.803Z,17952.00
2019-03-11T12:05:09.781Z,16808.00
2019-03-11T12:06:09.763Z,17128.00
2019-03-11T12:07:09.745Z,16568.00
2019-03-11T12:08:09.720Z,14988.00
2019-03-11T12:09:09.701Z,21632.00
2019-03-11T12:10:09.682Z,31904.00
2019-03-11T12:11:09.670Z,33920.00
2019-03-11T12:12:09.640Z,32224.00
2019-03-11T12:13:09.627Z,24608.00
2019-03-11T12:14:09.612Z,20928.00
2019-03-11T12:15:09.592Z,19296.00
2019-03-11T12:16:09.579Z,21280.00
2019-03-11T12:17:09.547Z,22272.00
2019-03-11T12:18:09.549Z,19264.00
2019-03-11T12:19:09.512Z,15976.00
2019-03-11T12:20:09.496Z,12920.00
2019-03-11T12:21:09.477Z,11272.00
2019-03-11T12:22:09.465Z,10768.00
2019-03-11T12:23:09.486Z,10904.00
2019-03-11T12:24:09.434Z,12732.00
2019-03-11T12:25:09.399Z,12672.00
2019-03-11T12:26:09.383Z,11212.00
2019-03-11T12:27:09.361Z,9780.00
2019-03-11T12:28:09.348Z,9132.00
2019-03-11T12:29:09.321Z,9548.00
2019-03-11T12:30:09.303Z,10016.00
2019-03-11T12:31:09.288Z,10644.00